createdAt,value
2022-10-11T00:01:41.376Z,1.70
2022-10-11T00:04:08.255Z,1.90
2022-10-11T00:06:37.647Z,2.00
2022-10-11T00:09:04.588Z,1.50
2022-10-11T00:11:31.759Z,1.63
2022-10-11T00:13:58.724Z,2.20
2022-10-11T00:16:25.384Z,1.97
2022-10-11T00:18:54.442Z,1.77
2022-10-11T00:21:21.289Z,1.33
2022-10-11T00:23:49.249Z,1.60
2022-10-11T00:26:16.369Z,3.03
2022-10-11T00:28:43.304Z,1.30
2022-10-11T00:31:11.537Z,1.57
2022-10-11T00:33:38.555Z,1.70
2022-10-11T00:36:06.064Z,1.90
2022-10-11T00:38:33.393Z,1.60
2022-10-11T00:41:00.917Z,1.50
2022-10-11T00:43:30.535Z,1.33
2022-10-11T00:46:24.046Z,1.73
2022-10-11T00:48:56.455Z,1.70
2022-10-11T00:51:32.712Z,2.20
2022-10-11T00:54:01.251Z,1.50
2022-10-11T00:56:32.463Z,1.60
2022-10-11T00:59:02.139Z,1.83
2022-10-11T01:01:29.272Z,1.63
2022-10-11T01:03:56.321Z,1.70
2022-10-11T01:06:23.278Z,1.73
2022-10-11T01:08:51.669Z,1.67
2022-10-11T01:11:23.506Z,1.37
2022-10-11T01:14:06.234Z,1.93
2022-10-11T01:16:37.678Z,1.87
2022-10-11T01:19:19.789Z,1.70
2022-10-11T01:21:52.401Z,1.97
2022-10-11T01:24:48.592Z,1.93
2022-10-11T01:27:30.479Z,1.47
2022-10-11T01:30:07.206Z,1.63
2022-10-11T01:32:40.539Z,3.10
2022-10-11T01:35:14.045Z,1.73
2022-10-11T01:37:44.366Z,1.40
2022-10-11T01:40:15.314Z,2.47
2022-10-11T01:42:43.420Z,2.03
2022-10-11T01:45:14.760Z,2.00
2022-10-11T01:47:42.300Z,2.20
2022-10-11T01:50:37.702Z,2.00
2022-10-11T01:53:25.176Z,2.13
2022-10-11T01:55:57.410Z,2.00
2022-10-11T01:58:33.985Z,2.03
2022-10-11T02:01:09.025Z,1.87
2022-10-11T02:03:44.025Z,2.43
2022-10-11T02:06:13.456Z,2.33
2022-10-11T02:08:49.162Z,2.20
2022-10-11T02:11:22.448Z,1.90
2022-10-11T02:13:54.452Z,2.17
2022-10-11T02:16:28.181Z,2.10
2022-10-11T02:18:57.427Z,2.27
2022-10-11T02:21:25.741Z,2.33
2022-10-11T02:23:56.859Z,1.97
2022-10-11T02:26:27.335Z,2.23
2022-10-11T02:28:57.741Z,2.20
2022-10-11T02:31:25.487Z,3.00
2022-10-11T02:34:00.267Z,1.83
2022-10-11T02:36:41.710Z,2.67
2022-10-11T02:39:16.376Z,2.20
2022-10-11T02:41:43.392Z,2.53
2022-10-11T02:44:14.311Z,2.13
2022-10-11T02:46:43.242Z,1.93
2022-10-11T02:49:11.580Z,2.00
2022-10-11T02:51:39.050Z,2.03
2022-10-11T02:54:06.163Z,2.17
2022-10-11T02:56:33.110Z,2.23
2022-10-11T02:59:00.036Z,2.17
2022-10-11T03:01:26.918Z,2.10
2022-10-11T03:03:53.870Z,2.43
2022-10-11T03:06:21.135Z,2.07
2022-10-11T03:08:48.082Z,2.57
2022-10-11T03:11:14.921Z,2.10
2022-10-11T03:13:41.764Z,1.87
2022-10-11T03:16:08.940Z,2.33
2022-10-11T03:18:35.916Z,2.67
2022-10-11T03:21:05.018Z,2.03
2022-10-11T03:23:32.319Z,2.10
2022-10-11T03:25:58.909Z,2.40
2022-10-11T03:28:25.889Z,2.30
2022-10-11T03:30:52.891Z,2.50
2022-10-11T03:33:19.766Z,2.33
2022-10-11T03:35:47.660Z,2.00
2022-10-11T03:38:16.502Z,2.53
2022-10-11T03:40:44.016Z,2.60
2022-10-11T03:43:11.040Z,2.20
2022-10-11T03:45:37.945Z,2.30
2022-10-11T03:48:05.635Z,2.17
2022-10-11T03:50:32.526Z,2.20
2022-10-11T03:52:59.399Z,2.13
2022-10-11T03:55:26.257Z,2.13
2022-10-11T03:57:53.491Z,3.83
2022-10-11T04:00:20.272Z,2.90
2022-10-11T04:02:47.224Z,2.43
2022-10-11T04:05:14.066Z,3.53
2022-10-11T04:07:41.129Z,3.13
2022-10-11T04:10:08.486Z,2.80
2022-10-11T04:12:35.396Z,2.50
2022-10-11T04:15:02.781Z,2.67
2022-10-11T04:17:29.701Z,3.10
2022-10-11T04:19:56.541Z,2.37
2022-10-11T04:22:23.586Z,2.83
2022-10-11T04:24:50.256Z,2.90
2022-10-11T04:27:17.156Z,3.00
2022-10-11T04:29:44.046Z,3.03
2022-10-11T04:32:11.703Z,2.87
2022-10-11T04:34:38.744Z,3.20
2022-10-11T04:37:05.627Z,3.33
2022-10-11T04:39:32.520Z,3.27
2022-10-11T04:41:59.439Z,3.47
2022-10-11T04:44:26.124Z,3.53
2022-10-11T04:46:53.185Z,3.17
2022-10-11T04:49:20.821Z,2.93
2022-10-11T04:51:47.871Z,3.60
2022-10-11T04:54:14.958Z,3.93
2022-10-11T04:56:41.583Z,3.20
2022-10-11T04:59:08.563Z,3.50
2022-10-11T05:01:36.128Z,3.40
2022-10-11T05:04:02.837Z,3.13
2022-10-11T05:06:30.051Z,3.40
2022-10-11T05:08:56.797Z,5.20
2022-10-11T05:11:23.761Z,4.60
2022-10-11T05:13:50.651Z,3.63
2022-10-11T05:16:18.329Z,3.67
2022-10-11T05:18:45.004Z,4.33
2022-10-11T05:21:16.917Z,3.80
2022-10-11T05:23:44.759Z,4.13
2022-10-11T05:26:11.729Z,4.43
2022-10-11T05:28:38.672Z,3.73
2022-10-11T05:31:05.700Z,4.37
2022-10-11T05:33:32.584Z,4.57
2022-10-11T05:36:00.206Z,4.67
2022-10-11T05:38:27.254Z,4.33
2022-10-11T05:40:54.728Z,4.63
2022-10-11T05:43:21.372Z,4.63
2022-10-11T05:45:48.257Z,4.57
2022-10-11T05:48:15.137Z,4.77
2022-10-11T05:50:42.104Z,5.47
2022-10-11T05:53:09.053Z,4.80
2022-10-11T05:55:36.709Z,4.63
2022-10-11T05:58:04.554Z,4.70
2022-10-11T06:00:31.546Z,4.50
2022-10-11T06:02:58.312Z,4.40
2022-10-11T06:05:25.215Z,5.00
2022-10-11T06:07:52.235Z,4.80
2022-10-11T06:10:19.179Z,4.63
2022-10-11T06:12:46.125Z,4.30
2022-10-11T06:15:15.015Z,5.40
2022-10-11T06:17:41.979Z,4.63
2022-10-11T06:20:09.691Z,4.30
2022-10-11T06:22:36.601Z,4.27
2022-10-11T06:25:03.669Z,4.53
2022-10-11T06:27:30.576Z,4.30
2022-10-11T06:29:57.379Z,4.30
2022-10-11T06:32:24.664Z,4.20
2022-10-11T06:34:51.725Z,4.27
2022-10-11T06:37:18.735Z,5.43
2022-10-11T06:39:45.771Z,4.23
2022-10-11T06:42:12.696Z,4.17
2022-10-11T06:44:39.853Z,3.90
2022-10-11T06:47:08.526Z,3.50
2022-10-11T06:49:35.985Z,4.53
2022-10-11T06:52:02.937Z,4.40
2022-10-11T06:54:29.833Z,4.67
2022-10-11T06:56:57.711Z,3.83
2022-10-11T06:59:24.553Z,3.70
2022-10-11T07:01:51.377Z,4.20
2022-10-11T07:04:18.268Z,4.27
2022-10-11T07:06:45.775Z,4.80
2022-10-11T07:09:12.801Z,3.50
2022-10-11T07:11:39.710Z,4.10
2022-10-11T07:14:07.252Z,3.87
2022-10-11T07:16:35.738Z,3.60
2022-10-11T07:19:04.410Z,3.57
2022-10-11T07:21:33.582Z,3.13
2022-10-11T07:24:01.289Z,3.70
2022-10-11T07:26:28.319Z,3.80
2022-10-11T07:28:55.500Z,3.43
2022-10-11T07:31:24.712Z,3.47
2022-10-11T07:33:51.685Z,3.17
2022-10-11T07:36:18.724Z,3.83
2022-10-11T07:38:46.800Z,3.13
2022-10-11T07:41:14.605Z,3.33
2022-10-11T07:43:42.715Z,3.20
2022-10-11T07:46:10.864Z,3.30
2022-10-11T07:48:38.080Z,3.10
2022-10-11T07:51:07.027Z,2.90
2022-10-11T07:53:39.280Z,3.20
2022-10-11T07:56:07.325Z,3.20
2022-10-11T07:58:35.494Z,3.20
2022-10-11T08:01:02.500Z,3.10
2022-10-11T08:03:30.365Z,2.87
2022-10-11T08:06:00.846Z,2.87
2022-10-11T08:08:28.073Z,2.70
2022-10-11T08:10:55.253Z,3.00
2022-10-11T08:13:22.166Z,2.80
2022-10-11T08:15:50.103Z,2.77
2022-10-11T08:18:17.248Z,3.20
2022-10-11T08:20:44.193Z,3.10
2022-10-11T08:23:11.268Z,3.10
2022-10-11T08:25:38.300Z,2.17
2022-10-11T08:28:05.514Z,2.30
2022-10-11T08:30:32.587Z,3.47
2022-10-11T08:32:59.982Z,3.10
2022-10-11T08:35:26.973Z,1.90
2022-10-11T08:37:54.181Z,2.47
2022-10-11T08:40:21.848Z,4.10
2022-10-11T08:42:57.240Z,4.85
2022-10-11T08:45:29.958Z,5.25
2022-10-11T08:48:09.609Z,3.28
2022-10-11T08:50:38.095Z,2.08
2022-10-11T08:53:14.281Z,4.25
2022-10-11T08:55:46.685Z,5.40
2022-10-11T08:58:17.318Z,4.25
2022-10-11T09:00:45.938Z,5.43
2022-10-11T09:03:28.223Z,3.53
2022-10-11T09:06:07.399Z,3.60
2022-10-11T09:08:46.158Z,2.15
2022-10-11T09:11:22.524Z,3.13
2022-10-11T09:14:14.995Z,2.38
2022-10-11T09:16:57.387Z,2.42
2022-10-11T09:19:39.352Z,2.90
2022-10-11T09:22:17.053Z,2.10
2022-10-11T09:24:57.164Z,3.20
2022-10-11T09:27:57.835Z,2.75
2022-10-11T09:30:21.222Z,4.22
2022-10-11T09:33:02.472Z,3.10
2022-10-11T09:35:35.613Z,2.42
2022-10-11T09:38:07.483Z,2.20
2022-10-11T09:40:52.359Z,1.67
2022-10-11T09:43:22.765Z,3.15
2022-10-11T09:45:49.855Z,2.53
2022-10-11T09:48:21.315Z,2.58
2022-10-11T09:50:50.181Z,3.90
2022-10-11T09:53:16.813Z,18.10
2022-10-11T09:55:51.053Z,5.43
2022-10-11T09:58:31.882Z,3.53
2022-10-11T10:01:07.381Z,2.85
2022-10-11T10:03:36.006Z,2.40
2022-10-11T10:06:17.605Z,2.50
2022-10-11T10:08:47.630Z,2.40
2022-10-11T10:11:14.783Z,1.65
2022-10-11T10:13:44.600Z,2.10
2022-10-11T10:16:26.371Z,3.67
2022-10-11T10:18:56.312Z,4.38
2022-10-11T10:21:32.919Z,3.10
2022-10-11T10:24:03.995Z,2.10
2022-10-11T10:26:38.391Z,1.73
2022-10-11T10:29:15.939Z,2.70
2022-10-11T10:32:13.422Z,2.08
2022-10-11T10:34:53.909Z,2.45
2022-10-11T10:37:28.173Z,2.33
2022-10-11T10:40:01.450Z,2.20
2022-10-11T10:42:28.702Z,2.28
2022-10-11T10:44:57.902Z,4.07
2022-10-11T10:47:49.271Z,2.50
2022-10-11T10:50:21.505Z,2.47
2022-10-11T10:53:01.902Z,1.92
2022-10-11T10:55:36.326Z,7.35
2022-10-11T10:58:09.021Z,1.35
2022-10-11T11:00:42.942Z,3.63
2022-10-11T11:06:05.868Z,1.73
2022-10-11T11:08:51.072Z,1.98
2022-10-11T11:11:37.544Z,1.33
2022-10-11T11:14:11.634Z,2.97
2022-10-11T11:16:43.981Z,1.75
2022-10-11T11:19:20.384Z,1.93
2022-10-11T11:21:56.880Z,1.90
2022-10-11T11:24:35.038Z,1.87
2022-10-11T11:27:06.556Z,1.70
2022-10-11T11:29:47.405Z,2.20
2022-10-11T11:32:23.261Z,2.00
2022-10-11T11:34:53.876Z,1.53
2022-10-11T11:37:25.824Z,2.10
2022-10-11T11:39:57.231Z,1.67
2022-10-11T11:42:30.679Z,1.75
2022-10-11T11:45:04.492Z,1.92
2022-10-11T11:47:35.429Z,2.00
2022-10-11T11:50:18.419Z,1.80
2022-10-11T11:52:50.068Z,1.42
2022-10-11T11:55:21.100Z,1.70
2022-10-11T11:58:02.091Z,1.40
2022-10-11T12:00:40.318Z,2.40
2022-10-11T12:03:16.136Z,1.80
2022-10-11T12:06:21.898Z,1.60
2022-10-11T12:09:02.117Z,1.70
2022-10-11T12:11:39.790Z,1.63
2022-10-11T12:14:26.796Z,1.80
2022-10-11T12:17:21.136Z,1.90
2022-10-11T12:20:13.796Z,1.80
2022-10-11T12:22:53.746Z,1.77
2022-10-11T12:25:43.690Z,2.50
2022-10-11T12:28:48.412Z,1.60
2022-10-11T12:31:26.763Z,1.73
2022-10-11T12:34:32.409Z,1.43
2022-10-11T12:37:02.156Z,2.30
2022-10-11T12:39:50.770Z,1.73
2022-10-11T12:42:29.768Z,2.17
2022-10-11T12:45:29.804Z,2.27
2022-10-11T12:48:11.802Z,2.00
2022-10-11T12:50:50.584Z,1.73
2022-10-11T12:53:41.084Z,1.50
2022-10-11T12:56:12.055Z,1.73
2022-10-11T12:58:40.864Z,1.93
2022-10-11T13:01:22.847Z,1.70
2022-10-11T13:04:02.913Z,1.43
2022-10-11T13:06:33.483Z,1.50
2022-10-11T13:09:04.848Z,2.07
2022-10-11T13:14:34.401Z,1.40
2022-10-11T13:17:13.662Z,1.70
2022-10-11T13:22:23.193Z,1.40
2022-10-11T13:24:50.505Z,1.43
2022-10-11T13:27:20.871Z,1.60
2022-10-11T13:29:53.117Z,1.50
2022-10-11T13:32:23.633Z,1.60
2022-10-11T13:37:28.123Z,5.10
2022-10-11T13:39:56.294Z,1.50
2022-10-11T13:42:27.925Z,1.53
2022-10-11T13:44:55.505Z,1.93
2022-10-11T13:47:27.251Z,1.80
2022-10-11T13:50:16.315Z,1.47
2022-10-11T13:53:04.908Z,1.60
2022-10-11T13:55:35.003Z,1.60
2022-10-11T13:58:08.684Z,1.60
2022-10-11T14:00:38.222Z,2.10
2022-10-11T14:03:16.955Z,1.20
2022-10-11T14:05:51.457Z,1.40
2022-10-11T14:08:23.725Z,1.20
2022-10-11T14:10:57.208Z,1.73
2022-10-11T14:13:31.125Z,1.20
2022-10-11T14:16:04.347Z,1.23
2022-10-11T14:18:41.086Z,1.67
2022-10-11T14:21:50.444Z,1.07
2022-10-11T14:24:18.697Z,1.40
2022-10-11T14:26:47.859Z,1.30
2022-10-11T14:29:20.586Z,1.57
2022-10-11T14:31:47.636Z,1.87
2022-10-11T14:34:18.563Z,1.43
2022-10-11T14:36:46.804Z,1.77
2022-10-11T14:39:15.894Z,1.90
2022-10-11T14:41:42.887Z,4.37
2022-10-11T14:44:10.646Z,1.83
2022-10-11T14:46:40.107Z,4.93
2022-10-11T14:49:13.447Z,2.00
2022-10-11T14:51:41.266Z,1.40
2022-10-11T14:54:09.453Z,1.87
2022-10-11T14:56:36.444Z,2.23
2022-10-11T14:59:03.468Z,1.70
2022-10-11T15:01:30.459Z,2.53
2022-10-11T15:03:57.508Z,4.70
2022-10-11T15:06:28.677Z,1.63
2022-10-11T15:08:56.241Z,1.87
2022-10-11T15:11:23.842Z,1.50
2022-10-11T15:13:53.299Z,1.63
2022-10-11T15:16:20.753Z,1.70
2022-10-11T15:18:50.854Z,1.60
2022-10-11T15:21:19.655Z,2.10
2022-10-11T15:23:49.501Z,2.60
2022-10-11T15:26:22.759Z,3.23
2022-10-11T15:28:51.552Z,1.73
2022-10-11T15:31:18.526Z,1.80
2022-10-11T15:33:45.698Z,1.67
2022-10-11T15:36:15.414Z,1.83
2022-10-11T15:38:42.476Z,1.40
2022-10-11T15:41:12.192Z,1.90
2022-10-11T15:43:39.552Z,1.70
2022-10-11T15:46:06.553Z,1.87
2022-10-11T15:48:33.649Z,2.17
2022-10-11T15:51:00.647Z,1.43
2022-10-11T15:53:31.760Z,2.17
2022-10-11T15:56:01.037Z,2.17
2022-10-11T15:58:34.183Z,1.70
2022-10-11T16:01:08.196Z,2.40
2022-10-11T16:03:35.529Z,2.30
2022-10-11T16:06:05.551Z,1.97
2022-10-11T16:08:33.306Z,2.80
2022-10-11T16:11:00.171Z,1.80
2022-10-11T16:13:29.977Z,2.70
2022-10-11T16:15:57.625Z,1.90
2022-10-11T16:18:24.970Z,2.30
2022-10-11T16:20:52.374Z,1.80
2022-10-11T16:23:19.567Z,2.10
2022-10-11T16:25:46.493Z,2.13
2022-10-11T16:28:13.449Z,2.50
2022-10-11T16:30:42.565Z,2.53
2022-10-11T16:33:09.886Z,2.30
2022-10-11T16:35:41.144Z,1.90
2022-10-11T16:38:08.172Z,2.13
2022-10-11T16:40:36.065Z,4.23
2022-10-11T16:43:07.634Z,2.10
2022-10-11T16:45:35.621Z,2.53
2022-10-11T16:48:03.505Z,2.53
2022-10-11T16:50:34.342Z,2.73
2022-10-11T16:53:04.845Z,3.20
2022-10-11T16:55:31.965Z,2.37
2022-10-11T16:57:59.238Z,3.10
2022-10-11T17:00:30.141Z,2.50
2022-10-11T17:02:57.002Z,2.97
2022-10-11T17:05:25.886Z,2.70
2022-10-11T17:07:52.927Z,3.43
2022-10-11T17:10:38.644Z,2.93
2022-10-11T17:13:05.982Z,3.30
2022-10-11T17:15:32.909Z,3.10
2022-10-11T17:17:59.974Z,4.93
2022-10-11T17:20:26.842Z,5.33
2022-10-11T17:22:54.455Z,4.70
2022-10-11T17:25:27.545Z,4.23
2022-10-11T17:27:56.791Z,4.83
2022-10-11T17:30:26.867Z,5.30
2022-10-11T17:32:54.016Z,5.53
2022-10-11T17:35:20.984Z,4.73
2022-10-11T17:37:49.161Z,5.13
2022-10-11T17:40:16.256Z,4.90
2022-10-11T17:42:44.103Z,5.00
2022-10-11T17:45:11.239Z,6.40
2022-10-11T17:47:38.142Z,5.13
2022-10-11T17:50:05.816Z,6.13
2022-10-11T17:52:32.731Z,5.50
2022-10-11T17:55:01.520Z,5.80
2022-10-11T17:57:28.317Z,5.43
2022-10-11T17:59:55.958Z,5.53
2022-10-11T18:02:22.884Z,5.47
2022-10-11T18:04:49.866Z,5.83
2022-10-11T18:07:17.018Z,4.97
2022-10-11T18:09:44.237Z,4.77
2022-10-11T18:12:14.397Z,5.90
2022-10-11T18:14:48.044Z,5.57
2022-10-11T18:17:17.867Z,5.60
2022-10-11T18:19:46.087Z,5.90
2022-10-11T18:24:59.028Z,7.00
2022-10-11T18:27:27.754Z,6.83
2022-10-11T18:29:55.309Z,8.40
2022-10-11T18:32:24.123Z,7.10
2022-10-11T18:34:50.986Z,6.20
2022-10-11T18:37:19.026Z,6.30
2022-10-11T18:39:46.095Z,6.10
2022-10-11T18:42:13.700Z,5.50
2022-10-11T18:44:40.929Z,5.70
2022-10-11T18:47:08.838Z,6.47
2022-10-11T18:49:37.227Z,6.57
2022-10-11T18:52:04.599Z,6.80
2022-10-11T18:54:31.656Z,6.63
2022-10-11T18:56:58.946Z,7.10
2022-10-11T18:59:25.829Z,6.93
2022-10-11T19:01:53.005Z,6.80
2022-10-11T19:04:20.316Z,7.30
2022-10-11T19:06:49.992Z,7.03
2022-10-11T19:09:20.900Z,6.70
2022-10-11T19:11:48.353Z,7.00
2022-10-11T19:14:20.847Z,7.67
2022-10-11T19:16:50.799Z,8.43
2022-10-11T19:19:19.485Z,7.83
2022-10-11T19:21:49.078Z,7.07
2022-10-11T19:24:17.420Z,7.80
2022-10-11T19:26:44.905Z,7.20
2022-10-11T19:29:15.081Z,8.03
2022-10-11T19:31:44.863Z,7.57
2022-10-11T19:34:14.064Z,7.43
2022-10-11T19:36:42.124Z,7.47
2022-10-11T19:39:12.102Z,8.70
2022-10-11T19:41:45.621Z,7.73
2022-10-11T19:44:13.583Z,9.17
2022-10-11T19:46:57.534Z,9.00
2022-10-11T19:49:25.939Z,25.97
2022-10-11T19:51:54.445Z,41.40
2022-10-11T19:54:21.452Z,30.57
2022-10-11T19:56:50.844Z,12.17
2022-10-11T19:59:18.050Z,10.73
2022-10-11T20:01:49.626Z,14.00
2022-10-11T20:04:40.047Z,15.03
2022-10-11T20:07:06.462Z,12.10
2022-10-11T20:09:33.533Z,10.87
2022-10-11T20:12:01.280Z,10.37
2022-10-11T20:14:28.340Z,9.53
2022-10-11T20:16:55.631Z,10.67
2022-10-11T20:19:30.612Z,10.63
2022-10-11T20:21:58.400Z,11.33
2022-10-11T20:24:26.635Z,12.97
2022-10-11T20:26:54.403Z,12.07
2022-10-11T20:29:27.129Z,11.57
2022-10-11T20:31:55.584Z,10.20
2022-10-11T20:34:22.746Z,9.67
2022-10-11T20:36:49.599Z,9.47
2022-10-11T20:39:17.312Z,9.53
2022-10-11T20:41:44.182Z,10.13
2022-10-11T20:44:12.506Z,10.03
2022-10-11T20:46:39.838Z,8.97
2022-10-11T20:49:11.549Z,9.10
2022-10-11T20:51:40.733Z,9.10
2022-10-11T20:54:07.689Z,8.50
2022-10-11T20:56:34.913Z,8.93
2022-10-11T20:59:04.947Z,8.90
2022-10-11T21:01:33.989Z,17.67
2022-10-11T21:04:02.520Z,9.23
2022-10-11T21:06:30.776Z,8.33
2022-10-11T21:08:58.655Z,9.73
2022-10-11T21:11:26.507Z,8.60
2022-10-11T21:13:55.991Z,9.80
2022-10-11T21:16:22.926Z,9.03
2022-10-11T21:18:51.011Z,9.17
2022-10-11T21:21:18.648Z,8.67
2022-10-11T21:23:49.088Z,8.53
2022-10-11T21:26:17.586Z,8.47
2022-10-11T21:28:45.896Z,8.40
2022-10-11T21:31:14.834Z,7.87
2022-10-11T21:33:42.811Z,7.83
2022-10-11T21:36:14.629Z,8.33
2022-10-11T21:38:42.014Z,8.40
2022-10-11T21:41:11.095Z,16.97
2022-10-11T21:43:39.267Z,53.67
2022-10-11T21:46:10.283Z,13.57
2022-10-11T21:48:36.932Z,8.87
2022-10-11T21:51:04.020Z,8.27
2022-10-11T21:53:30.813Z,9.37
2022-10-11T21:55:58.361Z,9.23
2022-10-11T21:58:25.039Z,9.80
2022-10-11T22:00:52.567Z,9.13
2022-10-11T22:03:19.579Z,9.03
2022-10-11T22:05:46.951Z,9.17
2022-10-11T22:08:14.589Z,10.10
2022-10-11T22:10:43.758Z,9.63
2022-10-11T22:13:12.500Z,10.03
2022-10-11T22:15:40.256Z,9.50
2022-10-11T22:18:07.157Z,10.00
2022-10-11T22:20:34.086Z,10.27
2022-10-11T22:23:00.724Z,9.67
2022-10-11T22:25:27.622Z,10.90
2022-10-11T22:27:55.285Z,11.00
2022-10-11T22:30:22.977Z,11.20
2022-10-11T22:32:50.687Z,11.93
2022-10-11T22:35:17.593Z,11.60
2022-10-11T22:37:44.437Z,11.30
2022-10-11T22:40:11.830Z,11.17
2022-10-11T22:42:38.701Z,9.90
2022-10-11T22:45:06.023Z,10.17
2022-10-11T22:47:33.461Z,10.20
2022-10-11T22:50:00.718Z,12.07
2022-10-11T22:52:27.904Z,11.30
2022-10-11T22:54:56.064Z,11.83
2022-10-11T22:57:22.734Z,12.57
2022-10-11T22:59:49.576Z,12.93
2022-10-11T23:02:16.510Z,11.80
2022-10-11T23:04:44.048Z,10.80
2022-10-11T23:07:11.034Z,10.13
2022-10-11T23:09:37.936Z,12.27
2022-10-11T23:12:05.088Z,11.33
2022-10-11T23:14:32.475Z,11.47
2022-10-11T23:16:59.038Z,11.73
2022-10-11T23:19:25.959Z,11.87
2022-10-11T23:21:53.211Z,12.00
2022-10-11T23:24:19.793Z,12.33
2022-10-11T23:26:46.685Z,10.83
2022-10-11T23:29:13.593Z,12.00
2022-10-11T23:31:40.446Z,11.87
2022-10-11T23:34:08.136Z,12.07
2022-10-11T23:36:34.682Z,11.67
2022-10-11T23:39:01.912Z,11.20
2022-10-11T23:41:29.409Z,11.40
2022-10-11T23:43:57.355Z,11.57
2022-10-11T23:46:24.566Z,11.87
2022-10-11T23:48:51.476Z,11.87
2022-10-11T23:51:18.291Z,12.90
2022-10-11T23:53:45.317Z,11.30
2022-10-11T23:56:12.790Z,11.43
2022-10-11T23:58:40.114Z,11.67
